Time;durP1;ratioP1;P1;durP2;ratioP2;P2;SDS_P1;SDS_P2;PMS_P1;PMS_P2;Temp;Humidity;BMP_temperature;BMP_pressure;BME280_temperature;BME280_humidity;BME280_pressure;Samples;Min_cycle;Max_cycle;Signal;HPM_P1;HPM_P2
2022/08/02 00:08:37;;;;;;;;;;;;;;;25.05;45.43;100192.59;20563413;28;97675;-76
2022/08/02 00:18:38;;;;;;;;;;;;;;;24.94;45.87;100178.56;20558739;28;99195;-75
2022/08/02 00:28:38;;;;;;;;;;;;;;;24.88;46.09;100180.97;20555986;28;97528;-75
2022/08/02 00:38:38;;;;;;;;;;;;;;;24.93;45.91;100187.47;20568358;28;99821;-75
2022/08/02 00:48:40;;;;;;;;;;;;;;;24.93;45.96;100181.34;20556917;28;103701;-79
2022/08/02 00:58:41;;;;;;;;;;;;;;;24.83;46.14;100199.09;20559970;28;98513;-76
2022/08/02 01:08:41;;;;;;;;;;;;;;;24.81;46.15;100209.84;20564665;28;98575;-75
2022/08/02 01:18:44;;;;;;;;;;;;;;;24.77;46.26;100205.84;20559173;28;98771;-75
2022/08/02 01:29:03;;;;;;;;;;;;;;;24.67;46.64;100205.88;20557357;28;101383;-76
2022/08/02 01:39:07;;;;;;;;;;;;;;;24.70;46.46;100196.81;20553878;28;97926;-75
2022/08/02 01:49:11;;;;;;;;;;;;;;;24.66;46.52;100198.91;20545321;28;100765;-73
2022/08/02 01:59:12;;;;;;;;;;;;;;;24.50;47.17;100223.34;20560362;28;98415;-75
2022/08/02 02:09:14;;;;;;;;;;;;;;;24.37;47.87;100236.88;20562578;28;98129;-75
2022/08/02 02:19:19;;;;;;;;;;;;;;;24.26;48.16;100243.16;20566631;28;98578;-75
2022/08/02 02:29:20;;;;;;;;;;;;;;;24.27;48.09;100242.19;20557194;28;98644;-74
2022/08/02 02:39:22;;;;;;;;;;;;;;;24.24;48.38;100246.94;20567048;28;99490;-77
2022/08/02 02:49:22;;;;;;;;;;;;;;;24.25;48.20;100256.53;20552298;28;97374;-75
2022/08/02 02:59:23;;;;;;;;;;;;;;;24.16;48.53;100255.59;20572270;28;98122;-75
2022/08/02 03:09:23;;;;;;;;;;;;;;;24.09;48.84;100252.66;20548969;28;98660;-74
2022/08/02 03:19:24;;;;;;;;;;;;;;;24.26;48.07;100234.41;20567264;28;100385;-75
2022/08/02 03:29:24;;;;;;;;;;;;;;;24.28;48.09;100232.47;20566545;28;99410;-75
2022/08/02 03:39:25;;;;;;;;;;;;;;;24.23;47.95;100247.91;20491362;28;98905;-74
2022/08/02 03:49:26;;;;;;;;;;;;;;;24.19;48.40;100255.28;20491108;28;98136;-74
2022/08/02 03:59:27;;;;;;;;;;;;;;;24.11;48.83;100266.59;20483775;28;99877;-74
2022/08/02 04:09:27;;;;;;;;;;;;;;;24.13;48.88;100279.66;20491463;28;100140;-76
2022/08/02 04:19:46;;;;;;;;;;;;;;;24.01;49.29;100286.09;20483464;28;97790;-74
2022/08/02 04:29:47;;;;;;;;;;;;;;;24.09;49.15;100291.50;20466001;28;98119;-78
2022/08/02 04:39:47;;;;;;;;;;;;;;;24.10;49.43;100301.94;20556272;28;100926;-72
2022/08/02 04:49:47;;;;;;;;;;;;;;;24.04;49.10;100306.97;20545973;28;97806;-74
2022/08/02 04:59:48;;;;;;;;;;;;;;;23.88;49.60;100302.22;20545371;28;99341;-76
2022/08/02 05:09:49;;;;;;;;;;;;;;;23.97;49.15;100309.34;20524316;28;99955;-75
2022/08/02 05:19:50;;;;;;;;;;;;;;;24.01;49.09;100308.09;20560993;28;99132;-75
2022/08/02 05:29:50;;;;;;;;;;;;;;;24.03;48.84;100322.00;20557200;28;101148;-74
2022/08/02 05:39:51;;;;;;;;;;;;;;;24.06;48.09;100347.31;20590149;28;101448;-74
2022/08/02 05:49:51;;;;;;;;;;;;;;;24.06;47.89;100347.31;20582681;28;98436;-74
2022/08/02 06:00:03;;;;;;;;;;;;;;;24.09;48.01;100355.00;20556393;28;98713;-74
2022/08/02 06:10:04;;;;;;;;;;;;;;;24.14;47.67;100344.84;20564343;28;97602;-73
2022/08/02 06:20:05;;;;;;;;;;;;;;;24.24;47.65;100363.34;20557734;28;99078;-74
2022/08/02 06:30:06;;;;;;;;;;;;;;;24.32;47.26;100360.03;20572920;28;98855;-74
2022/08/02 06:40:17;;;;;;;;;;;;;;;24.39;47.14;100371.69;20574412;28;98800;-73
2022/08/02 06:50:17;;;;;;;;;;;;;;;24.45;46.21;100377.28;20565112;28;97577;-74
2022/08/02 07:00:18;;;;;;;;;;;;;;;24.51;46.28;100375.88;20572640;28;98706;-75
2022/08/02 07:10:20;;;;;;;;;;;;;;;24.57;46.30;100362.09;20559153;28;98240;-73
2022/08/02 07:20:20;;;;;;;;;;;;;;;24.64;46.40;100362.34;20574455;28;97974;-74
2022/08/02 07:30:20;;;;;;;;;;;;;;;24.69;45.25;100367.25;20569595;28;98350;-74
2022/08/02 07:40:22;;;;;;;;;;;;;;;24.75;45.51;100366.66;20575501;28;98571;-74
2022/08/02 07:50:22;;;;;;;;;;;;;;;24.78;44.69;100359.28;20586211;28;99665;-74
2022/08/02 08:00:23;;;;;;;;;;;;;;;24.84;45.05;100363.16;20581845;28;97876;-72
2022/08/02 08:10:25;;;;;;;;;;;;;;;24.91;44.96;100352.81;20558345;28;98646;-75
2022/08/02 08:20:25;;;;;;;;;;;;;;;24.97;43.70;100351.41;20536623;28;99272;-74
2022/08/02 08:30:25;;;;;;;;;;;;;;;25.03;43.67;100367.56;20583626;28;98612;-75
2022/08/02 08:40:26;;;;;;;;;;;;;;;25.09;43.96;100372.28;20565381;28;98025;-74
2022/08/02 08:50:29;;;;;;;;;;;;;;;25.14;43.74;100366.53;20580387;28;98341;-74
2022/08/02 09:00:30;;;;;;;;;;;;;;;25.23;43.29;100367.47;20579408;28;97625;-75
2022/08/02 09:10:38;;;;;;;;;;;;;;;25.28;42.92;100378.50;20567733;28;98802;-77
2022/08/02 09:20:57;;;;;;;;;;;;;;;25.33;42.97;100376.22;20564574;28;98511;-75
2022/08/02 09:31:04;;;;;;;;;;;;;;;25.38;42.34;100374.00;20550444;28;98588;-75
2022/08/02 09:41:21;;;;;;;;;;;;;;;25.44;42.35;100377.03;20547169;28;98265;-74
2022/08/02 09:51:23;;;;;;;;;;;;;;;25.48;42.08;100368.66;20552160;28;98864;-75
2022/08/02 10:01:33;;;;;;;;;;;;;;;25.53;42.19;100347.81;20552126;28;98890;-75
2022/08/02 10:11:34;;;;;;;;;;;;;;;25.60;41.54;100352.53;20549632;28;97654;-76
2022/08/02 10:21:45;;;;;;;;;;;;;;;25.64;41.38;100333.53;20586200;28;98231;-77
2022/08/02 10:31:56;;;;;;;;;;;;;;;25.70;42.05;100327.63;20577419;28;98914;-75
2022/08/02 10:41:56;;;;;;;;;;;;;;;25.75;41.95;100319.22;20570940;28;97205;-76
2022/08/02 10:52:04;;;;;;;;;;;;;;;25.80;41.10;100308.16;20554074;28;98517;-77
2022/08/02 11:02:05;;;;;;;;;;;;;;;25.87;40.61;100319.84;20576419;28;98362;-76
2022/08/02 11:12:06;;;;;;;;;;;;;;;25.93;40.47;100308.63;20570965;28;98805;-78
2022/08/02 11:22:09;;;;;;;;;;;;;;;26.03;40.44;100303.22;20591669;28;98499;-78
2022/08/02 11:32:23;;;;;;;;;;;;;;;26.14;40.12;100288.91;20579430;28;98657;-78
2022/08/02 11:42:34;;;;;;;;;;;;;;;26.23;40.64;100280.00;20561054;28;98156;-77
2022/08/02 11:52:35;;;;;;;;;;;;;;;26.28;40.45;100284.84;20569767;28;101905;-77
2022/08/02 12:02:35;;;;;;;;;;;;;;;26.34;41.84;100284.25;20565137;28;99730;-78
2022/08/02 12:12:49;;;;;;;;;;;;;;;26.41;41.70;100282.63;20574862;28;99151;-80
2022/08/02 12:22:49;;;;;;;;;;;;;;;26.46;42.73;100271.53;20581678;28;97593;-77
2022/08/02 12:32:50;;;;;;;;;;;;;;;26.47;43.03;100265.25;20579759;28;98015;-78
2022/08/02 12:42:52;;;;;;;;;;;;;;;26.47;43.80;100266.06;20555322;28;101105;-79
2022/08/02 12:53:22;;;;;;;;;;;;;;;26.50;44.50;100255.16;20546078;28;100996;-76
2022/08/02 13:03:23;;;;;;;;;;;;;;;26.55;44.38;100254.69;20513863;28;98003;-76
2022/08/02 13:13:23;;;;;;;;;;;;;;;26.58;43.96;100257.00;20541327;28;98580;-77
2022/08/02 13:23:23;;;;;;;;;;;;;;;26.64;43.24;100243.09;20547493;28;98790;-77
2022/08/02 13:33:23;;;;;;;;;;;;;;;26.68;43.51;100244.47;20524190;28;98100;-77
2022/08/02 13:43:24;;;;;;;;;;;;;;;26.72;42.98;100229.03;20531459;28;101396;-77
2022/08/02 13:53:25;;;;;;;;;;;;;;;26.76;43.26;100232.25;20559715;28;99016;-76
2022/08/02 14:03:25;;;;;;;;;;;;;;;26.81;43.10;100222.78;20571036;28;97980;-77
2022/08/02 14:13:25;;;;;;;;;;;;;;;26.82;42.32;100227.09;20579443;28;99445;-76
2022/08/02 14:23:26;;;;;;;;;;;;;;;26.87;42.33;100216.00;20555534;28;101338;-77
2022/08/02 14:33:26;;;;;;;;;;;;;;;26.90;42.46;100204.22;20561608;28;99046;-77
2022/08/02 14:53:45;;;;;;;;;;;;;;;26.96;41.53;100208.88;20545663;28;99974;-77
2022/08/02 15:03:45;;;;;;;;;;;;;;;27.00;41.03;100218.19;20546008;28;98104;-76
2022/08/02 15:13:46;;;;;;;;;;;;;;;27.04;40.96;100219.53;20564504;28;98441;-76
2022/08/02 15:23:46;;;;;;;;;;;;;;;27.07;40.29;100205.09;20572552;28;98180;-77
2022/08/02 15:33:46;;;;;;;;;;;;;;;27.10;40.13;100207.41;20566802;28;98047;-77
2022/08/02 15:43:47;;;;;;;;;;;;;;;27.12;40.18;100203.63;20572399;28;98642;-76
2022/08/02 15:53:47;;;;;;;;;;;;;;;27.16;39.76;100206.78;20555240;28;101112;-76
2022/08/02 16:03:47;;;;;;;;;;;;;;;27.17;39.83;100219.06;20558206;28;97819;-77
2022/08/02 16:13:54;;;;;;;;;;;;;;;27.17;39.35;100219.06;20567006;28;97869;-77
2022/08/02 16:23:55;;;;;;;;;;;;;;;27.16;39.83;100220.09;20567544;28;101239;-78
2022/08/02 16:33:55;;;;;;;;;;;;;;;27.17;39.17;100232.34;20557936;28;101089;-77
2022/08/02 16:43:55;;;;;;;;;;;;;;;27.15;38.56;100231.69;20543505;28;104422;-79
2022/08/02 16:53:57;;;;;;;;;;;;;;;27.16;40.10;100234.19;20537214;28;98972;-82
2022/08/02 17:03:57;;;;;;;;;;;;;;;27.17;40.10;100237.66;20536332;28;98686;-79
2022/08/02 17:13:57;;;;;;;;;;;;;;;27.20;40.00;100249.84;20539152;28;99740;-80
2022/08/02 17:23:58;;;;;;;;;;;;;;;27.18;40.09;100244.66;20545459;28;98079;-76
2022/08/02 17:33:58;;;;;;;;;;;;;;;27.15;39.82;100253.78;20585644;28;98564;-75
2022/08/02 17:44:00;;;;;;;;;;;;;;;27.13;40.05;100260.25;20578777;28;101011;-75
2022/08/02 17:54:00;;;;;;;;;;;;;;;27.11;39.85;100264.91;20571842;28;98198;-75
2022/08/02 18:04:00;;;;;;;;;;;;;;;27.07;39.30;100275.00;20565619;28;104933;-76
2022/08/02 18:14:01;;;;;;;;;;;;;;;27.04;38.67;100301.06;20570949;28;98325;-76
2022/08/02 18:24:01;;;;;;;;;;;;;;;26.98;35.82;100308.69;20562151;28;100105;-75
2022/08/02 18:34:03;;;;;;;;;;;;;;;26.96;36.24;100323.97;20583983;28;98670;-76
2022/08/02 18:44:04;;;;;;;;;;;;;;;26.93;34.48;100320.81;20569753;28;98172;-75
2022/08/02 18:54:04;;;;;;;;;;;;;;;26.87;34.16;100327.59;20582814;28;102259;-76
2022/08/02 19:04:04;;;;;;;;;;;;;;;26.83;34.46;100334.19;20583278;28;98284;-76
2022/08/02 19:14:05;;;;;;;;;;;;;;;26.76;33.93;100344.63;20562927;28;98801;-76
2022/08/02 19:24:05;;;;;;;;;;;;;;;26.70;34.23;100350.53;20565164;28;98704;-79
2022/08/02 19:34:06;;;;;;;;;;;;;;;26.69;35.41;100351.53;20575975;28;98678;-79
2022/08/02 19:44:06;;;;;;;;;;;;;;;26.66;35.78;100355.31;20591224;28;99570;-78
2022/08/02 19:54:06;;;;;;;;;;;;;;;26.62;35.70;100346.00;20571055;28;97741;-78
2022/08/02 20:04:07;;;;;;;;;;;;;;;26.58;36.22;100354.44;20596743;28;97981;-79
2022/08/02 20:14:08;;;;;;;;;;;;;;;26.53;35.69;100349.59;20583464;28;97697;-78
2022/08/02 20:24:08;;;;;;;;;;;;;;;26.49;35.65;100366.84;20577997;28;101820;-78
2022/08/02 20:34:09;;;;;;;;;;;;;;;26.47;36.35;100376.75;20543821;28;100877;-77
2022/08/02 20:44:09;;;;;;;;;;;;;;;26.41;36.08;100383.50;20562019;28;99649;-76
2022/08/02 20:54:09;;;;;;;;;;;;;;;26.21;37.17;100378.38;20558461;28;98591;-76
2022/08/02 21:04:10;;;;;;;;;;;;;;;26.02;37.69;100366.09;20561188;28;97671;-76
2022/08/02 21:14:10;;;;;;;;;;;;;;;25.91;38.45;100363.63;20558600;28;100132;-77
2022/08/02 21:24:10;;;;;;;;;;;;;;;25.91;38.92;100376.06;20554144;28;99821;-76
2022/08/02 21:34:12;;;;;;;;;;;;;;;25.89;38.28;100379.72;20554487;28;98692;-76
2022/08/02 21:44:22;;;;;;;;;;;;;;;25.91;38.82;100376.06;20539485;28;97872;-79
2022/08/02 21:54:22;;;;;;;;;;;;;;;25.88;38.88;100375.38;20542328;28;99111;-79
2022/08/02 22:04:23;;;;;;;;;;;;;;;25.79;39.13;100381.56;20532830;28;98773;-77
2022/08/02 22:14:24;;;;;;;;;;;;;;;25.78;39.14;100379.94;20529881;28;99192;-77
2022/08/02 22:24:24;;;;;;;;;;;;;;;25.76;39.59;100392.50;20541255;28;101889;-75
2022/08/02 22:34:24;;;;;;;;;;;;;;;25.76;39.81;100391.69;20532087;28;98806;-77
2022/08/02 22:44:24;;;;;;;;;;;;;;;25.69;40.75;100391.41;20537278;28;101482;-77
2022/08/02 22:54:25;;;;;;;;;;;;;;;25.55;41.83;100400.72;20539644;28;98741;-76
2022/08/02 23:04:25;;;;;;;;;;;;;;;25.45;42.27;100408.72;20545351;28;100833;-77
2022/08/02 23:14:26;;;;;;;;;;;;;;;25.39;43.33;100414.63;20537481;28;100441;-76
2022/08/02 23:24:27;;;;;;;;;;;;;;;25.30;43.90;100420.75;20544606;28;99075;-77
2022/08/02 23:34:27;;;;;;;;;;;;;;;25.15;44.62;100409.78;20524557;28;98478;-78
2022/08/02 23:44:28;;;;;;;;;;;;;;;25.15;44.89;100402.66;20536412;28;101906;-77
2022/08/02 23:54:29;;;;;;;;;;;;;;;25.06;45.59;100401.72;20539444;28;100855;-76
